Thompson Falls, MT (59873)

12:29 AM MDT on July 27, 2016 (GMT -0600)
Little Beaver Creek | | Change Station

Elev 2583 ft 47.69 °N, 115.48 °W | Updated 60 seconds ago

Overcast
Overcast
57.0 °F
Feels Like 57.0 °F
N
0.0
Wind Variable Wind from SSE
Gusts 0.0 mph

Today
High -- | Low -- °F
--% Chance of Precip.
Yesterday
High -- | Low -- °F
Precip. -- in
Pressure 30.02 in
Visibility 10.0 miles
Clouds Overcast 10000 ft
Dew Point 52 °F
Humidity 83%
Rainfall 0.00 in
Snow Depth Not available.
6:13 AM 9:21 PM
Waning Gibbous, 46% visible
METAR KCOE 270615Z AUTO 02008KT 010V070 10SM OVC100 19/14 A3002 RMK AO1 LTG DSNT SE
Pressure 30.02 in
Visibility 10.0 miles
Clouds Overcast 10000 ft
Dew Point 52 °F
Humidity 83%
Rainfall 0.00 in
Snow Depth Not available.
6:13 AM 9:21 PM
Waning Gibbous, 46% visible
METAR KCOE 270615Z AUTO 02008KT 010V070 10SM OVC100 19/14 A3002 RMK AO1 LTG DSNT SE

10-Day Weather Forecast

Almanac

Astronomy

Jul. 27, 2016 Rise Set
Actual Time
Civil Twilight
Nautical Twilight
Astronomical Twilight
Moon
Length of Visible Light
Length of Day
Tomorrow will be .
, % of the Moon is Illuminated

Today's Extremes

State Highs State Lows

Community

WunderPhotos

Upload Photos

1,927,818 photos uploaded!

WunderBlog® & News

Nearby

Air Quality

  Air Quality AQ Index Pollutant
Not available.

Snow Depth

Station Depth Elevation

Earthquake Activity

City Distance Mag. Time & Date
Minimum magnitude displayed is 2.5.

Coastal Water Temperatures

Place Temperature

Stations

Nearby Weather Stations

Station Location Temp. Windchill Dew Point Humidity Wind Precip. Elev Updated Type
                   

Watches & Warnings

There are currently no watches in effect.